sensor_id;sensor_type;location;lat;lon;timestamp;P1;durP1;ratioP1;P2;durP2;ratioP2
2598;SDS011;1309;48.810;8.954;2023-05-07T00:02:03;8.67;;;5.30;;
2598;SDS011;1309;48.810;8.954;2023-05-07T00:04:31;11.33;;;6.63;;
2598;SDS011;1309;48.810;8.954;2023-05-07T00:07:04;10.43;;;6.20;;
2598;SDS011;1309;48.810;8.954;2023-05-07T00:09:39;10.00;;;7.73;;
2598;SDS011;1309;48.810;8.954;2023-05-07T00:12:09;8.60;;;5.97;;
2598;SDS011;1309;48.810;8.954;2023-05-07T00:14:37;12.97;;;6.57;;
2598;SDS011;1309;48.810;8.954;2023-05-07T00:17:07;8.73;;;6.23;;
2598;SDS011;1309;48.810;8.954;2023-05-07T00:19:36;11.43;;;5.87;;
2598;SDS011;1309;48.810;8.954;2023-05-07T00:22:04;11.23;;;6.13;;
2598;SDS011;1309;48.810;8.954;2023-05-07T00:24:39;11.73;;;6.57;;
2598;SDS011;1309;48.810;8.954;2023-05-07T00:27:08;7.97;;;6.27;;
2598;SDS011;1309;48.810;8.954;2023-05-07T00:29:38;9.00;;;5.93;;
2598;SDS011;1309;48.810;8.954;2023-05-07T00:32:09;8.83;;;5.40;;
2598;SDS011;1309;48.810;8.954;2023-05-07T00:34:46;10.70;;;5.97;;
2598;SDS011;1309;48.810;8.954;2023-05-07T00:37:19;8.67;;;5.90;;
2598;SDS011;1309;48.810;8.954;2023-05-07T00:39:49;9.50;;;6.40;;
2598;SDS011;1309;48.810;8.954;2023-05-07T00:42:17;7.10;;;5.47;;
2598;SDS011;1309;48.810;8.954;2023-05-07T00:44:49;9.57;;;6.23;;
2598;SDS011;1309;48.810;8.954;2023-05-07T00:47:19;8.10;;;5.83;;
2598;SDS011;1309;48.810;8.954;2023-05-07T00:49:50;8.27;;;5.97;;
2598;SDS011;1309;48.810;8.954;2023-05-07T00:52:19;10.40;;;5.90;;
2598;SDS011;1309;48.810;8.954;2023-05-07T00:55:00;12.00;;;6.27;;
2598;SDS011;1309;48.810;8.954;2023-05-07T00:57:41;8.83;;;5.90;;
2598;SDS011;1309;48.810;8.954;2023-05-07T01:00:14;10.77;;;7.53;;
2598;SDS011;1309;48.810;8.954;2023-05-07T01:02:58;9.47;;;6.10;;
2598;SDS011;1309;48.810;8.954;2023-05-07T01:05:27;9.10;;;5.80;;
2598;SDS011;1309;48.810;8.954;2023-05-07T01:08:02;8.20;;;5.53;;
2598;SDS011;1309;48.810;8.954;2023-05-07T01:10:32;8.87;;;5.70;;
2598;SDS011;1309;48.810;8.954;2023-05-07T01:13:00;7.50;;;4.70;;
2598;SDS011;1309;48.810;8.954;2023-05-07T01:15:30;6.93;;;5.03;;
2598;SDS011;1309;48.810;8.954;2023-05-07T01:17:59;7.43;;;4.47;;
2598;SDS011;1309;48.810;8.954;2023-05-07T01:20:28;7.87;;;5.33;;
2598;SDS011;1309;48.810;8.954;2023-05-07T01:22:58;11.40;;;5.37;;
2598;SDS011;1309;48.810;8.954;2023-05-07T01:25:31;6.47;;;5.17;;
2598;SDS011;1309;48.810;8.954;2023-05-07T01:28:00;8.13;;;5.50;;
2598;SDS011;1309;48.810;8.954;2023-05-07T01:30:28;6.20;;;4.57;;
2598;SDS011;1309;48.810;8.954;2023-05-07T01:32:59;9.70;;;6.07;;
2598;SDS011;1309;48.810;8.954;2023-05-07T01:35:32;9.73;;;5.70;;
2598;SDS011;1309;48.810;8.954;2023-05-07T01:38:05;7.90;;;5.37;;
2598;SDS011;1309;48.810;8.954;2023-05-07T01:40:33;7.77;;;4.60;;
2598;SDS011;1309;48.810;8.954;2023-05-07T01:43:02;9.90;;;5.43;;
2598;SDS011;1309;48.810;8.954;2023-05-07T01:45:30;10.57;;;5.60;;
2598;SDS011;1309;48.810;8.954;2023-05-07T01:47:59;6.93;;;4.20;;
2598;SDS011;1309;48.810;8.954;2023-05-07T01:50:31;6.77;;;4.30;;
2598;SDS011;1309;48.810;8.954;2023-05-07T01:53:01;6.53;;;4.90;;
2598;SDS011;1309;48.810;8.954;2023-05-07T01:55:33;7.40;;;4.67;;
2598;SDS011;1309;48.810;8.954;2023-05-07T01:58:23;7.47;;;4.60;;
2598;SDS011;1309;48.810;8.954;2023-05-07T02:00:51;7.20;;;4.93;;
2598;SDS011;1309;48.810;8.954;2023-05-07T02:03:19;7.40;;;5.23;;
2598;SDS011;1309;48.810;8.954;2023-05-07T02:05:48;6.17;;;4.53;;
2598;SDS011;1309;48.810;8.954;2023-05-07T02:08:18;6.30;;;4.17;;
2598;SDS011;1309;48.810;8.954;2023-05-07T02:10:50;5.70;;;4.13;;
2598;SDS011;1309;48.810;8.954;2023-05-07T02:13:22;7.60;;;4.63;;
2598;SDS011;1309;48.810;8.954;2023-05-07T02:15:52;5.27;;;4.33;;
2598;SDS011;1309;48.810;8.954;2023-05-07T02:18:21;7.20;;;4.60;;
2598;SDS011;1309;48.810;8.954;2023-05-07T02:21:01;6.23;;;4.60;;
2598;SDS011;1309;48.810;8.954;2023-05-07T02:23:36;7.63;;;4.30;;
2598;SDS011;1309;48.810;8.954;2023-05-07T02:26:05;6.80;;;4.70;;
2598;SDS011;1309;48.810;8.954;2023-05-07T02:28:34;5.87;;;4.10;;
2598;SDS011;1309;48.810;8.954;2023-05-07T02:31:06;5.67;;;4.03;;
2598;SDS011;1309;48.810;8.954;2023-05-07T02:33:36;6.80;;;4.90;;
2598;SDS011;1309;48.810;8.954;2023-05-07T02:36:05;6.60;;;4.67;;
2598;SDS011;1309;48.810;8.954;2023-05-07T02:38:37;6.23;;;4.70;;
2598;SDS011;1309;48.810;8.954;2023-05-07T02:41:09;6.93;;;4.73;;
2598;SDS011;1309;48.810;8.954;2023-05-07T02:43:40;5.13;;;4.20;;
2598;SDS011;1309;48.810;8.954;2023-05-07T02:46:11;5.93;;;4.33;;
2598;SDS011;1309;48.810;8.954;2023-05-07T02:48:42;5.50;;;4.00;;
2598;SDS011;1309;48.810;8.954;2023-05-07T02:51:17;5.80;;;4.23;;
2598;SDS011;1309;48.810;8.954;2023-05-07T02:53:49;6.43;;;4.33;;
2598;SDS011;1309;48.810;8.954;2023-05-07T02:56:25;5.27;;;4.33;;
2598;SDS011;1309;48.810;8.954;2023-05-07T02:58:55;5.83;;;3.67;;
2598;SDS011;1309;48.810;8.954;2023-05-07T03:01:23;6.53;;;3.97;;
2598;SDS011;1309;48.810;8.954;2023-05-07T03:03:53;5.40;;;3.90;;
2598;SDS011;1309;48.810;8.954;2023-05-07T03:06:21;5.67;;;4.20;;
2598;SDS011;1309;48.810;8.954;2023-05-07T03:08:49;6.90;;;4.87;;
2598;SDS011;1309;48.810;8.954;2023-05-07T03:11:24;6.67;;;3.97;;
2598;SDS011;1309;48.810;8.954;2023-05-07T03:13:54;8.87;;;5.70;;
2598;SDS011;1309;48.810;8.954;2023-05-07T03:16:28;6.10;;;4.17;;
2598;SDS011;1309;48.810;8.954;2023-05-07T03:19:00;5.37;;;3.20;;
2598;SDS011;1309;48.810;8.954;2023-05-07T03:21:32;6.77;;;4.50;;
2598;SDS011;1309;48.810;8.954;2023-05-07T03:24:04;5.70;;;4.13;;
2598;SDS011;1309;48.810;8.954;2023-05-07T03:26:34;7.13;;;4.80;;
2598;SDS011;1309;48.810;8.954;2023-05-07T03:29:13;4.60;;;3.83;;
2598;SDS011;1309;48.810;8.954;2023-05-07T03:31:44;5.30;;;4.20;;
2598;SDS011;1309;48.810;8.954;2023-05-07T03:34:12;4.93;;;3.70;;
2598;SDS011;1309;48.810;8.954;2023-05-07T03:36:42;6.03;;;3.70;;
2598;SDS011;1309;48.810;8.954;2023-05-07T03:39:13;5.60;;;3.67;;
2598;SDS011;1309;48.810;8.954;2023-05-07T03:41:43;5.60;;;4.17;;
2598;SDS011;1309;48.810;8.954;2023-05-07T03:44:11;4.93;;;3.83;;
2598;SDS011;1309;48.810;8.954;2023-05-07T03:46:40;5.93;;;4.57;;
2598;SDS011;1309;48.810;8.954;2023-05-07T03:49:12;6.80;;;4.43;;
2598;SDS011;1309;48.810;8.954;2023-05-07T03:51:40;6.27;;;4.00;;
2598;SDS011;1309;48.810;8.954;2023-05-07T03:54:09;5.90;;;4.07;;
2598;SDS011;1309;48.810;8.954;2023-05-07T03:56:37;6.53;;;3.73;;
2598;SDS011;1309;48.810;8.954;2023-05-07T03:59:07;7.90;;;4.20;;
2598;SDS011;1309;48.810;8.954;2023-05-07T04:01:37;8.17;;;4.77;;
2598;SDS011;1309;48.810;8.954;2023-05-07T04:04:08;7.90;;;4.63;;
2598;SDS011;1309;48.810;8.954;2023-05-07T04:06:39;6.17;;;3.90;;
2598;SDS011;1309;48.810;8.954;2023-05-07T04:09:10;6.50;;;4.77;;
2598;SDS011;1309;48.810;8.954;2023-05-07T04:11:42;5.63;;;4.20;;
2598;SDS011;1309;48.810;8.954;2023-05-07T04:14:32;5.90;;;4.27;;
2598;SDS011;1309;48.810;8.954;2023-05-07T04:17:05;6.20;;;3.93;;
2598;SDS011;1309;48.810;8.954;2023-05-07T04:19:33;5.60;;;4.07;;
2598;SDS011;1309;48.810;8.954;2023-05-07T04:22:02;6.50;;;4.63;;
2598;SDS011;1309;48.810;8.954;2023-05-07T04:24:32;8.30;;;4.90;;
2598;SDS011;1309;48.810;8.954;2023-05-07T04:27:03;6.90;;;4.10;;
2598;SDS011;1309;48.810;8.954;2023-05-07T04:29:34;5.33;;;3.70;;
2598;SDS011;1309;48.810;8.954;2023-05-07T04:32:03;5.90;;;4.27;;
2598;SDS011;1309;48.810;8.954;2023-05-07T04:34:36;6.50;;;3.93;;
2598;SDS011;1309;48.810;8.954;2023-05-07T04:37:08;6.00;;;3.70;;
2598;SDS011;1309;48.810;8.954;2023-05-07T04:39:36;5.33;;;3.63;;
2598;SDS011;1309;48.810;8.954;2023-05-07T04:42:08;5.37;;;3.40;;
2598;SDS011;1309;48.810;8.954;2023-05-07T04:44:43;9.20;;;4.40;;
2598;SDS011;1309;48.810;8.954;2023-05-07T04:47:14;5.70;;;3.50;;
2598;SDS011;1309;48.810;8.954;2023-05-07T04:49:57;7.03;;;4.93;;
2598;SDS011;1309;48.810;8.954;2023-05-07T04:52:28;7.23;;;4.53;;
2598;SDS011;1309;48.810;8.954;2023-05-07T04:55:02;7.27;;;4.50;;
2598;SDS011;1309;48.810;8.954;2023-05-07T04:57:34;7.57;;;4.40;;
2598;SDS011;1309;48.810;8.954;2023-05-07T05:00:08;51.07;;;22.30;;
2598;SDS011;1309;48.810;8.954;2023-05-07T05:02:40;24.53;;;12.67;;
2598;SDS011;1309;48.810;8.954;2023-05-07T05:05:16;19.10;;;9.40;;
2598;SDS011;1309;48.810;8.954;2023-05-07T05:07:48;18.30;;;10.33;;
2598;SDS011;1309;48.810;8.954;2023-05-07T05:10:26;15.47;;;7.20;;
2598;SDS011;1309;48.810;8.954;2023-05-07T05:12:58;8.70;;;5.20;;
2598;SDS011;1309;48.810;8.954;2023-05-07T05:15:51;5.33;;;4.40;;
2598;SDS011;1309;48.810;8.954;2023-05-07T05:18:19;6.77;;;4.50;;
2598;SDS011;1309;48.810;8.954;2023-05-07T05:20:48;6.13;;;4.70;;
2598;SDS011;1309;48.810;8.954;2023-05-07T05:23:18;7.33;;;5.47;;
2598;SDS011;1309;48.810;8.954;2023-05-07T05:25:49;6.63;;;3.93;;
2598;SDS011;1309;48.810;8.954;2023-05-07T05:28:17;8.53;;;4.90;;
2598;SDS011;1309;48.810;8.954;2023-05-07T05:30:45;5.63;;;4.27;;
2598;SDS011;1309;48.810;8.954;2023-05-07T05:33:16;8.17;;;4.60;;
2598;SDS011;1309;48.810;8.954;2023-05-07T05:35:46;6.43;;;3.87;;
2598;SDS011;1309;48.810;8.954;2023-05-07T05:38:16;9.57;;;5.00;;
2598;SDS011;1309;48.810;8.954;2023-05-07T05:40:44;8.83;;;4.13;;
2598;SDS011;1309;48.810;8.954;2023-05-07T05:43:13;6.73;;;4.37;;
2598;SDS011;1309;48.810;8.954;2023-05-07T05:45:50;7.50;;;4.70;;
2598;SDS011;1309;48.810;8.954;2023-05-07T05:48:20;5.60;;;3.93;;
2598;SDS011;1309;48.810;8.954;2023-05-07T05:50:49;7.60;;;4.90;;
2598;SDS011;1309;48.810;8.954;2023-05-07T05:53:17;7.43;;;5.17;;
2598;SDS011;1309;48.810;8.954;2023-05-07T05:55:48;7.23;;;4.93;;
2598;SDS011;1309;48.810;8.954;2023-05-07T05:58:19;6.07;;;3.63;;
2598;SDS011;1309;48.810;8.954;2023-05-07T06:00:49;6.90;;;4.43;;
2598;SDS011;1309;48.810;8.954;2023-05-07T06:03:21;6.87;;;4.20;;
2598;SDS011;1309;48.810;8.954;2023-05-07T06:05:49;5.80;;;4.43;;
2598;SDS011;1309;48.810;8.954;2023-05-07T06:08:18;9.70;;;4.20;;
2598;SDS011;1309;48.810;8.954;2023-05-07T06:10:51;7.20;;;4.67;;
2598;SDS011;1309;48.810;8.954;2023-05-07T06:13:19;5.80;;;4.27;;
2598;SDS011;1309;48.810;8.954;2023-05-07T06:15:50;6.13;;;4.50;;
2598;SDS011;1309;48.810;8.954;2023-05-07T06:18:21;8.37;;;4.70;;
2598;SDS011;1309;48.810;8.954;2023-05-07T06:20:54;8.00;;;4.90;;
2598;SDS011;1309;48.810;8.954;2023-05-07T06:23:22;6.30;;;4.87;;
2598;SDS011;1309;48.810;8.954;2023-05-07T06:25:53;7.63;;;4.77;;
2598;SDS011;1309;48.810;8.954;2023-05-07T06:28:26;8.20;;;5.00;;
2598;SDS011;1309;48.810;8.954;2023-05-07T06:31:10;5.83;;;3.97;;
2598;SDS011;1309;48.810;8.954;2023-05-07T06:33:44;6.30;;;4.60;;
2598;SDS011;1309;48.810;8.954;2023-05-07T06:36:12;5.33;;;3.77;;
2598;SDS011;1309;48.810;8.954;2023-05-07T06:38:41;7.37;;;3.97;;
2598;SDS011;1309;48.810;8.954;2023-05-07T06:41:22;5.67;;;3.63;;
2598;SDS011;1309;48.810;8.954;2023-05-07T06:43:56;6.40;;;3.63;;
2598;SDS011;1309;48.810;8.954;2023-05-07T06:46:30;7.07;;;3.60;;
2598;SDS011;1309;48.810;8.954;2023-05-07T06:49:03;5.83;;;3.83;;
2598;SDS011;1309;48.810;8.954;2023-05-07T06:51:32;5.63;;;4.27;;
2598;SDS011;1309;48.810;8.954;2023-05-07T06:54:03;9.60;;;5.10;;
2598;SDS011;1309;48.810;8.954;2023-05-07T06:56:34;8.40;;;5.03;;
2598;SDS011;1309;48.810;8.954;2023-05-07T06:59:06;8.13;;;5.10;;
2598;SDS011;1309;48.810;8.954;2023-05-07T07:01:34;9.93;;;5.03;;
2598;SDS011;1309;48.810;8.954;2023-05-07T07:04:07;6.97;;;4.67;;
2598;SDS011;1309;48.810;8.954;2023-05-07T07:06:35;7.27;;;4.40;;
2598;SDS011;1309;48.810;8.954;2023-05-07T07:09:03;6.83;;;4.60;;
2598;SDS011;1309;48.810;8.954;2023-05-07T07:11:46;6.63;;;4.67;;
2598;SDS011;1309;48.810;8.954;2023-05-07T07:14:17;5.47;;;4.10;;
2598;SDS011;1309;48.810;8.954;2023-05-07T07:16:51;5.20;;;4.17;;
2598;SDS011;1309;48.810;8.954;2023-05-07T07:19:21;5.90;;;4.60;;
2598;SDS011;1309;48.810;8.954;2023-05-07T07:21:53;5.90;;;4.27;;
2598;SDS011;1309;48.810;8.954;2023-05-07T07:24:24;7.47;;;4.53;;
2598;SDS011;1309;48.810;8.954;2023-05-07T07:27:03;5.80;;;4.20;;
2598;SDS011;1309;48.810;8.954;2023-05-07T07:29:37;7.63;;;5.00;;
2598;SDS011;1309;48.810;8.954;2023-05-07T07:32:05;6.03;;;4.60;;
2598;SDS011;1309;48.810;8.954;2023-05-07T07:34:41;6.20;;;4.20;;
2598;SDS011;1309;48.810;8.954;2023-05-07T07:37:15;7.17;;;4.20;;
2598;SDS011;1309;48.810;8.954;2023-05-07T07:39:50;6.10;;;4.50;;
2598;SDS011;1309;48.810;8.954;2023-05-07T07:42:21;7.47;;;4.57;;
2598;SDS011;1309;48.810;8.954;2023-05-07T07:44:54;5.70;;;4.00;;
2598;SDS011;1309;48.810;8.954;2023-05-07T07:47:23;6.10;;;4.03;;
2598;SDS011;1309;48.810;8.954;2023-05-07T07:49:55;6.67;;;4.40;;
2598;SDS011;1309;48.810;8.954;2023-05-07T07:52:33;7.63;;;4.40;;
2598;SDS011;1309;48.810;8.954;2023-05-07T07:55:04;6.13;;;4.00;;
2598;SDS011;1309;48.810;8.954;2023-05-07T07:57:36;5.20;;;3.93;;
2598;SDS011;1309;48.810;8.954;2023-05-07T08:00:10;5.33;;;4.07;;
2598;SDS011;1309;48.810;8.954;2023-05-07T08:02:40;6.87;;;3.70;;
2598;SDS011;1309;48.810;8.954;2023-05-07T08:05:14;6.00;;;4.20;;
2598;SDS011;1309;48.810;8.954;2023-05-07T08:07:42;5.77;;;4.00;;
2598;SDS011;1309;48.810;8.954;2023-05-07T08:10:13;5.77;;;3.67;;
2598;SDS011;1309;48.810;8.954;2023-05-07T08:12:50;5.60;;;4.50;;
2598;SDS011;1309;48.810;8.954;2023-05-07T08:15:27;6.20;;;4.47;;
2598;SDS011;1309;48.810;8.954;2023-05-07T08:17:58;6.77;;;4.93;;
2598;SDS011;1309;48.810;8.954;2023-05-07T08:20:28;7.57;;;4.90;;
2598;SDS011;1309;48.810;8.954;2023-05-07T08:23:00;6.20;;;4.90;;
2598;SDS011;1309;48.810;8.954;2023-05-07T08:25:29;5.63;;;4.60;;
2598;SDS011;1309;48.810;8.954;2023-05-07T08:27:59;7.30;;;4.90;;
2598;SDS011;1309;48.810;8.954;2023-05-07T08:30:28;6.47;;;4.70;;
2598;SDS011;1309;48.810;8.954;2023-05-07T08:33:03;5.13;;;3.80;;
2598;SDS011;1309;48.810;8.954;2023-05-07T08:35:37;9.30;;;5.30;;
2598;SDS011;1309;48.810;8.954;2023-05-07T08:38:07;7.17;;;4.50;;
2598;SDS011;1309;48.810;8.954;2023-05-07T08:40:37;7.60;;;5.60;;
2598;SDS011;1309;48.810;8.954;2023-05-07T08:43:08;7.30;;;5.30;;
2598;SDS011;1309;48.810;8.954;2023-05-07T08:45:53;5.90;;;4.63;;
2598;SDS011;1309;48.810;8.954;2023-05-07T08:48:24;6.30;;;4.80;;
2598;SDS011;1309;48.810;8.954;2023-05-07T08:50:59;6.57;;;5.10;;
2598;SDS011;1309;48.810;8.954;2023-05-07T08:53:33;5.83;;;4.60;;
2598;SDS011;1309;48.810;8.954;2023-05-07T08:56:05;5.67;;;3.80;;
2598;SDS011;1309;48.810;8.954;2023-05-07T08:58:34;6.47;;;4.47;;
2598;SDS011;1309;48.810;8.954;2023-05-07T09:01:05;6.47;;;4.80;;
2598;SDS011;1309;48.810;8.954;2023-05-07T09:03:36;5.37;;;4.30;;
2598;SDS011;1309;48.810;8.954;2023-05-07T09:06:11;8.20;;;4.57;;
2598;SDS011;1309;48.810;8.954;2023-05-07T09:08:39;6.10;;;3.70;;
2598;SDS011;1309;48.810;8.954;2023-05-07T09:11:07;6.17;;;3.90;;
2598;SDS011;1309;48.810;8.954;2023-05-07T09:13:37;5.47;;;4.27;;
2598;SDS011;1309;48.810;8.954;2023-05-07T09:16:10;5.70;;;3.90;;
2598;SDS011;1309;48.810;8.954;2023-05-07T09:18:42;7.20;;;4.70;;
2598;SDS011;1309;48.810;8.954;2023-05-07T09:21:17;6.23;;;4.43;;
2598;SDS011;1309;48.810;8.954;2023-05-07T09:23:47;5.60;;;4.50;;
2598;SDS011;1309;48.810;8.954;2023-05-07T09:26:19;6.20;;;4.43;;
2598;SDS011;1309;48.810;8.954;2023-05-07T09:28:51;6.87;;;4.40;;
2598;SDS011;1309;48.810;8.954;2023-05-07T09:31:21;5.17;;;3.80;;
2598;SDS011;1309;48.810;8.954;2023-05-07T09:33:54;6.43;;;4.13;;
2598;SDS011;1309;48.810;8.954;2023-05-07T09:36:24;6.67;;;4.20;;
2598;SDS011;1309;48.810;8.954;2023-05-07T09:39:01;7.63;;;4.20;;
2598;SDS011;1309;48.810;8.954;2023-05-07T09:41:32;6.10;;;4.20;;
2598;SDS011;1309;48.810;8.954;2023-05-07T09:44:03;7.23;;;4.27;;
2598;SDS011;1309;48.810;8.954;2023-05-07T09:46:37;5.07;;;4.20;;
2598;SDS011;1309;48.810;8.954;2023-05-07T09:49:07;6.43;;;4.50;;
2598;SDS011;1309;48.810;8.954;2023-05-07T09:51:52;5.47;;;3.90;;
2598;SDS011;1309;48.810;8.954;2023-05-07T09:54:26;6.30;;;3.90;;
2598;SDS011;1309;48.810;8.954;2023-05-07T09:56:56;5.63;;;3.67;;
2598;SDS011;1309;48.810;8.954;2023-05-07T09:59:24;5.60;;;4.13;;
2598;SDS011;1309;48.810;8.954;2023-05-07T10:02:00;5.83;;;4.20;;
2598;SDS011;1309;48.810;8.954;2023-05-07T10:04:33;6.40;;;4.83;;
2598;SDS011;1309;48.810;8.954;2023-05-07T10:07:04;5.40;;;4.40;;
2598;SDS011;1309;48.810;8.954;2023-05-07T10:09:37;5.20;;;3.80;;
2598;SDS011;1309;48.810;8.954;2023-05-07T10:12:05;5.33;;;4.77;;
2598;SDS011;1309;48.810;8.954;2023-05-07T10:14:33;5.90;;;4.67;;
2598;SDS011;1309;48.810;8.954;2023-05-07T10:17:05;7.27;;;4.97;;
2598;SDS011;1309;48.810;8.954;2023-05-07T10:19:33;5.93;;;5.30;;
2598;SDS011;1309;48.810;8.954;2023-05-07T10:22:05;8.30;;;5.03;;
2598;SDS011;1309;48.810;8.954;2023-05-07T10:24:36;7.80;;;5.07;;
2598;SDS011;1309;48.810;8.954;2023-05-07T10:27:07;5.20;;;4.10;;
2598;SDS011;1309;48.810;8.954;2023-05-07T10:29:45;5.80;;;4.77;;
2598;SDS011;1309;48.810;8.954;2023-05-07T10:32:22;9.53;;;5.13;;
2598;SDS011;1309;48.810;8.954;2023-05-07T10:35:06;6.50;;;4.33;;
2598;SDS011;1309;48.810;8.954;2023-05-07T10:37:45;5.47;;;4.40;;
2598;SDS011;1309;48.810;8.954;2023-05-07T10:40:14;6.03;;;5.00;;
2598;SDS011;1309;48.810;8.954;2023-05-07T10:42:53;8.20;;;5.90;;
2598;SDS011;1309;48.810;8.954;2023-05-07T10:45:24;6.17;;;4.70;;
2598;SDS011;1309;48.810;8.954;2023-05-07T10:48:08;7.57;;;4.97;;
2598;SDS011;1309;48.810;8.954;2023-05-07T10:50:42;6.10;;;4.30;;
2598;SDS011;1309;48.810;8.954;2023-05-07T11:02:11;6.97;;;5.20;;
2598;SDS011;1309;48.810;8.954;2023-05-07T11:04:42;6.87;;;5.07;;
2598;SDS011;1309;48.810;8.954;2023-05-07T11:07:18;6.07;;;4.83;;
2598;SDS011;1309;48.810;8.954;2023-05-07T11:09:57;6.77;;;5.10;;
2598;SDS011;1309;48.810;8.954;2023-05-07T11:12:51;8.17;;;5.70;;
2598;SDS011;1309;48.810;8.954;2023-05-07T11:15:36;6.50;;;5.17;;
2598;SDS011;1309;48.810;8.954;2023-05-07T11:18:10;8.07;;;5.63;;
2598;SDS011;1309;48.810;8.954;2023-05-07T11:26:27;7.00;;;5.07;;
2598;SDS011;1309;48.810;8.954;2023-05-07T11:28:59;8.40;;;4.97;;
2598;SDS011;1309;48.810;8.954;2023-05-07T11:31:30;6.90;;;5.20;;
2598;SDS011;1309;48.810;8.954;2023-05-07T11:34:02;5.93;;;4.60;;
2598;SDS011;1309;48.810;8.954;2023-05-07T11:36:30;7.23;;;5.67;;
2598;SDS011;1309;48.810;8.954;2023-05-07T11:38:59;6.80;;;5.50;;
2598;SDS011;1309;48.810;8.954;2023-05-07T11:41:36;6.60;;;4.60;;
2598;SDS011;1309;48.810;8.954;2023-05-07T11:44:09;6.40;;;5.30;;
2598;SDS011;1309;48.810;8.954;2023-05-07T11:46:37;7.07;;;4.33;;
2598;SDS011;1309;48.810;8.954;2023-05-07T11:49:10;6.40;;;4.43;;
2598;SDS011;1309;48.810;8.954;2023-05-07T11:51:42;6.67;;;4.80;;
2598;SDS011;1309;48.810;8.954;2023-05-07T11:54:20;6.33;;;4.73;;
2598;SDS011;1309;48.810;8.954;2023-05-07T11:56:51;7.13;;;4.90;;
2598;SDS011;1309;48.810;8.954;2023-05-07T11:59:40;7.33;;;5.47;;
2598;SDS011;1309;48.810;8.954;2023-05-07T12:02:10;6.83;;;5.30;;
2598;SDS011;1309;48.810;8.954;2023-05-07T12:04:45;5.70;;;4.37;;
2598;SDS011;1309;48.810;8.954;2023-05-07T12:07:13;6.33;;;4.77;;
2598;SDS011;1309;48.810;8.954;2023-05-07T12:09:44;8.13;;;4.23;;
2598;SDS011;1309;48.810;8.954;2023-05-07T12:12:18;5.23;;;3.63;;
2598;SDS011;1309;48.810;8.954;2023-05-07T12:14:46;5.60;;;4.33;;
2598;SDS011;1309;48.810;8.954;2023-05-07T12:17:15;6.97;;;4.27;;
2598;SDS011;1309;48.810;8.954;2023-05-07T12:19:45;6.53;;;4.03;;
2598;SDS011;1309;48.810;8.954;2023-05-07T12:22:18;7.90;;;4.17;;
2598;SDS011;1309;48.810;8.954;2023-05-07T12:24:47;5.30;;;3.93;;
2598;SDS011;1309;48.810;8.954;2023-05-07T12:27:19;5.77;;;3.37;;
2598;SDS011;1309;48.810;8.954;2023-05-07T12:29:57;4.03;;;3.40;;
2598;SDS011;1309;48.810;8.954;2023-05-07T12:32:31;7.07;;;3.10;;
2598;SDS011;1309;48.810;8.954;2023-05-07T12:35:03;4.50;;;2.80;;
2598;SDS011;1309;48.810;8.954;2023-05-07T12:37:35;3.60;;;2.27;;
2598;SDS011;1309;48.810;8.954;2023-05-07T12:40:06;3.63;;;2.30;;
2598;SDS011;1309;48.810;8.954;2023-05-07T12:42:39;3.43;;;2.03;;
2598;SDS011;1309;48.810;8.954;2023-05-07T12:45:09;4.27;;;2.63;;
2598;SDS011;1309;48.810;8.954;2023-05-07T12:47:43;4.67;;;2.37;;
2598;SDS011;1309;48.810;8.954;2023-05-07T12:50:20;4.80;;;2.10;;
2598;SDS011;1309;48.810;8.954;2023-05-07T12:52:49;3.90;;;2.27;;
2598;SDS011;1309;48.810;8.954;2023-05-07T12:55:19;6.57;;;2.33;;
2598;SDS011;1309;48.810;8.954;2023-05-07T12:57:49;6.80;;;2.60;;
2598;SDS011;1309;48.810;8.954;2023-05-07T13:00:35;4.00;;;2.53;;
2598;SDS011;1309;48.810;8.954;2023-05-07T13:03:06;4.20;;;2.40;;
2598;SDS011;1309;48.810;8.954;2023-05-07T13:05:35;3.83;;;2.50;;
2598;SDS011;1309;48.810;8.954;2023-05-07T13:08:06;4.13;;;2.83;;
2598;SDS011;1309;48.810;8.954;2023-05-07T13:10:40;4.30;;;2.33;;
2598;SDS011;1309;48.810;8.954;2023-05-07T13:13:13;3.87;;;2.40;;
2598;SDS011;1309;48.810;8.954;2023-05-07T13:15:44;3.90;;;2.30;;
2598;SDS011;1309;48.810;8.954;2023-05-07T13:18:22;4.30;;;2.10;;
2598;SDS011;1309;48.810;8.954;2023-05-07T13:20:54;5.00;;;2.83;;
2598;SDS011;1309;48.810;8.954;2023-05-07T13:23:24;9.80;;;2.80;;
2598;SDS011;1309;48.810;8.954;2023-05-07T13:25:54;4.87;;;3.23;;
2598;SDS011;1309;48.810;8.954;2023-05-07T13:28:25;6.60;;;2.97;;
2598;SDS011;1309;48.810;8.954;2023-05-07T13:30:53;3.53;;;2.33;;
2598;SDS011;1309;48.810;8.954;2023-05-07T13:33:24;5.80;;;2.90;;
2598;SDS011;1309;48.810;8.954;2023-05-07T13:35:52;5.43;;;2.90;;
2598;SDS011;1309;48.810;8.954;2023-05-07T13:38:20;5.20;;;3.40;;
2598;SDS011;1309;48.810;8.954;2023-05-07T13:40:50;5.90;;;3.67;;
2598;SDS011;1309;48.810;8.954;2023-05-07T13:43:20;4.27;;;3.60;;
2598;SDS011;1309;48.810;8.954;2023-05-07T13:45:53;6.27;;;3.70;;
2598;SDS011;1309;48.810;8.954;2023-05-07T13:48:22;4.90;;;3.40;;
2598;SDS011;1309;48.810;8.954;2023-05-07T13:50:52;9.17;;;3.90;;
2598;SDS011;1309;48.810;8.954;2023-05-07T13:53:26;4.47;;;3.27;;
2598;SDS011;1309;48.810;8.954;2023-05-07T13:55:54;5.13;;;3.57;;
2598;SDS011;1309;48.810;8.954;2023-05-07T13:58:22;5.50;;;3.73;;
2598;SDS011;1309;48.810;8.954;2023-05-07T14:00:53;12.07;;;3.50;;
2598;SDS011;1309;48.810;8.954;2023-05-07T14:03:21;4.33;;;3.27;;
2598;SDS011;1309;48.810;8.954;2023-05-07T14:05:50;4.50;;;3.10;;
2598;SDS011;1309;48.810;8.954;2023-05-07T14:08:22;5.50;;;3.60;;
2598;SDS011;1309;48.810;8.954;2023-05-07T14:10:50;6.77;;;3.33;;
2598;SDS011;1309;48.810;8.954;2023-05-07T14:13:18;7.67;;;3.43;;
2598;SDS011;1309;48.810;8.954;2023-05-07T14:15:46;4.97;;;4.17;;
2598;SDS011;1309;48.810;8.954;2023-05-07T14:18:27;4.47;;;2.93;;
2598;SDS011;1309;48.810;8.954;2023-05-07T14:21:17;5.10;;;3.40;;
2598;SDS011;1309;48.810;8.954;2023-05-07T14:23:46;7.23;;;3.40;;
2598;SDS011;1309;48.810;8.954;2023-05-07T14:26:21;5.30;;;3.77;;
2598;SDS011;1309;48.810;8.954;2023-05-07T14:28:49;5.77;;;3.60;;
2598;SDS011;1309;48.810;8.954;2023-05-07T14:31:26;4.40;;;3.27;;
2598;SDS011;1309;48.810;8.954;2023-05-07T14:33:54;5.40;;;3.60;;
2598;SDS011;1309;48.810;8.954;2023-05-07T14:36:24;6.43;;;3.90;;
2598;SDS011;1309;48.810;8.954;2023-05-07T14:38:56;4.90;;;3.80;;
2598;SDS011;1309;48.810;8.954;2023-05-07T14:41:26;5.10;;;3.27;;
2598;SDS011;1309;48.810;8.954;2023-05-07T14:43:56;7.03;;;4.13;;
2598;SDS011;1309;48.810;8.954;2023-05-07T14:46:27;6.27;;;3.33;;
2598;SDS011;1309;48.810;8.954;2023-05-07T14:49:08;4.60;;;3.00;;
2598;SDS011;1309;48.810;8.954;2023-05-07T14:51:43;7.00;;;4.50;;
2598;SDS011;1309;48.810;8.954;2023-05-07T14:54:14;8.47;;;3.83;;
2598;SDS011;1309;48.810;8.954;2023-05-07T14:56:44;7.10;;;3.47;;
2598;SDS011;1309;48.810;8.954;2023-05-07T14:59:13;6.73;;;4.47;;
2598;SDS011;1309;48.810;8.954;2023-05-07T15:01:47;5.10;;;3.47;;
2598;SDS011;1309;48.810;8.954;2023-05-07T15:04:15;6.30;;;3.50;;
2598;SDS011;1309;48.810;8.954;2023-05-07T15:06:46;8.43;;;4.20;;
2598;SDS011;1309;48.810;8.954;2023-05-07T15:09:16;6.60;;;3.70;;
2598;SDS011;1309;48.810;8.954;2023-05-07T15:11:44;8.20;;;4.20;;
2598;SDS011;1309;48.810;8.954;2023-05-07T15:14:12;5.37;;;3.50;;
2598;SDS011;1309;48.810;8.954;2023-05-07T15:16:50;5.40;;;3.40;;
2598;SDS011;1309;48.810;8.954;2023-05-07T15:19:19;3.80;;;3.10;;
2598;SDS011;1309;48.810;8.954;2023-05-07T15:21:56;4.97;;;3.40;;
2598;SDS011;1309;48.810;8.954;2023-05-07T15:24:25;5.53;;;2.90;;
2598;SDS011;1309;48.810;8.954;2023-05-07T15:26:53;5.23;;;3.10;;
2598;SDS011;1309;48.810;8.954;2023-05-07T15:29:24;4.90;;;3.40;;
2598;SDS011;1309;48.810;8.954;2023-05-07T15:31:54;4.90;;;3.30;;
2598;SDS011;1309;48.810;8.954;2023-05-07T15:34:22;6.10;;;3.53;;
2598;SDS011;1309;48.810;8.954;2023-05-07T15:36:56;5.20;;;3.20;;
2598;SDS011;1309;48.810;8.954;2023-05-07T15:39:28;4.10;;;2.70;;
2598;SDS011;1309;48.810;8.954;2023-05-07T15:41:56;8.80;;;3.50;;
2598;SDS011;1309;48.810;8.954;2023-05-07T15:44:27;5.67;;;3.40;;
2598;SDS011;1309;48.810;8.954;2023-05-07T15:47:02;5.87;;;3.43;;
2598;SDS011;1309;48.810;8.954;2023-05-07T15:49:30;3.93;;;3.50;;
2598;SDS011;1309;48.810;8.954;2023-05-07T15:51:58;6.27;;;3.30;;
2598;SDS011;1309;48.810;8.954;2023-05-07T15:54:27;6.10;;;3.20;;
2598;SDS011;1309;48.810;8.954;2023-05-07T15:56:58;7.53;;;3.60;;
2598;SDS011;1309;48.810;8.954;2023-05-07T15:59:27;6.13;;;3.33;;